sensor_id;sensor_type;location;lat;lon;timestamp;P1;durP1;ratioP1;P2;durP2;ratioP2
9823;SDS011;4951;50.778;7.196;2023-05-10T00:00:46;3.80;;;3.37;;
9823;SDS011;4951;50.778;7.196;2023-05-10T00:13:04;4.23;;;3.30;;
9823;SDS011;4951;50.778;7.196;2023-05-10T00:16:43;3.57;;;3.23;;
9823;SDS011;4951;50.778;7.196;2023-05-10T00:19:45;4.47;;;2.97;;
9823;SDS011;4951;50.778;7.196;2023-05-10T00:22:30;3.17;;;2.90;;
9823;SDS011;4951;50.778;7.196;2023-05-10T00:43:01;3.50;;;3.20;;
9823;SDS011;4951;50.778;7.196;2023-05-10T00:47:04;4.10;;;3.73;;
9823;SDS011;4951;50.778;7.196;2023-05-10T00:54:28;6.40;;;3.57;;
9823;SDS011;4951;50.778;7.196;2023-05-10T01:01:57;3.57;;;3.27;;
9823;SDS011;4951;50.778;7.196;2023-05-10T01:27:34;5.33;;;4.53;;
9823;SDS011;4951;50.778;7.196;2023-05-10T01:36:23;5.07;;;4.43;;
9823;SDS011;4951;50.778;7.196;2023-05-10T01:55:13;3.13;;;2.83;;
9823;SDS011;4951;50.778;7.196;2023-05-10T02:03:29;3.67;;;3.37;;
9823;SDS011;4951;50.778;7.196;2023-05-10T02:10:38;3.40;;;2.97;;
9823;SDS011;4951;50.778;7.196;2023-05-10T02:13:40;3.70;;;2.70;;
9823;SDS011;4951;50.778;7.196;2023-05-10T02:16:59;3.10;;;2.80;;
9823;SDS011;4951;50.778;7.196;2023-05-10T02:20:23;3.80;;;3.10;;
9823;SDS011;4951;50.778;7.196;2023-05-10T02:23:50;2.80;;;2.60;;
9823;SDS011;4951;50.778;7.196;2023-05-10T02:31:12;4.37;;;2.90;;
9823;SDS011;4951;50.778;7.196;2023-05-10T02:33:54;4.20;;;3.10;;
9823;SDS011;4951;50.778;7.196;2023-05-10T02:56:36;3.73;;;3.03;;
9823;SDS011;4951;50.778;7.196;2023-05-10T03:03:34;4.10;;;3.10;;
9823;SDS011;4951;50.778;7.196;2023-05-10T03:07:05;3.93;;;3.40;;
9823;SDS011;4951;50.778;7.196;2023-05-10T03:10:44;5.40;;;3.23;;
9823;SDS011;4951;50.778;7.196;2023-05-10T03:18:50;4.50;;;4.10;;
9823;SDS011;4951;50.778;7.196;2023-05-10T03:39:23;5.10;;;4.40;;
9823;SDS011;4951;50.778;7.196;2023-05-10T03:42:04;5.87;;;4.90;;
9823;SDS011;4951;50.778;7.196;2023-05-10T03:46:18;7.40;;;5.20;;
9823;SDS011;4951;50.778;7.196;2023-05-10T03:57:52;7.70;;;6.53;;
9823;SDS011;4951;50.778;7.196;2023-05-10T04:02:03;10.30;;;7.33;;
9823;SDS011;4951;50.778;7.196;2023-05-10T04:04:58;10.17;;;6.83;;
9823;SDS011;4951;50.778;7.196;2023-05-10T04:25:21;15.10;;;11.20;;
9823;SDS011;4951;50.778;7.196;2023-05-10T04:32:26;16.13;;;11.17;;
9823;SDS011;4951;50.778;7.196;2023-05-10T04:35:53;20.17;;;12.83;;
9823;SDS011;4951;50.778;7.196;2023-05-10T05:11:00;25.70;;;18.33;;
9823;SDS011;4951;50.778;7.196;2023-05-10T05:14:07;28.63;;;19.67;;
9823;SDS011;4951;50.778;7.196;2023-05-10T05:20:15;33.90;;;22.60;;
9823;SDS011;4951;50.778;7.196;2023-05-10T05:23:55;32.10;;;21.33;;
9823;SDS011;4951;50.778;7.196;2023-05-10T05:27:06;28.63;;;21.07;;
9823;SDS011;4951;50.778;7.196;2023-05-10T05:30:15;36.77;;;22.27;;
9823;SDS011;4951;50.778;7.196;2023-05-10T05:34:29;36.97;;;23.77;;
9823;SDS011;4951;50.778;7.196;2023-05-10T05:37:37;27.80;;;19.77;;
9823;SDS011;4951;50.778;7.196;2023-05-10T05:40:55;24.97;;;19.73;;
9823;SDS011;4951;50.778;7.196;2023-05-10T05:44:03;31.87;;;21.77;;
9823;SDS011;4951;50.778;7.196;2023-05-10T05:46:33;28.03;;;20.87;;
9823;SDS011;4951;50.778;7.196;2023-05-10T05:53:20;29.93;;;20.03;;
9823;SDS011;4951;50.778;7.196;2023-05-10T05:57:03;26.73;;;19.07;;
9823;SDS011;4951;50.778;7.196;2023-05-10T05:59:52;30.20;;;21.03;;
9823;SDS011;4951;50.778;7.196;2023-05-10T06:02:51;24.23;;;19.20;;
9823;SDS011;4951;50.778;7.196;2023-05-10T06:05:27;29.43;;;20.53;;
9823;SDS011;4951;50.778;7.196;2023-05-10T06:08:24;24.00;;;19.37;;
9823;SDS011;4951;50.778;7.196;2023-05-10T06:20:40;23.80;;;19.70;;
9823;SDS011;4951;50.778;7.196;2023-05-10T06:23:18;22.73;;;18.47;;
9823;SDS011;4951;50.778;7.196;2023-05-10T06:26:41;21.10;;;17.57;;
9823;SDS011;4951;50.778;7.196;2023-05-10T06:30:17;23.43;;;17.80;;
9823;SDS011;4951;50.778;7.196;2023-05-10T06:33:19;31.03;;;20.60;;
9823;SDS011;4951;50.778;7.196;2023-05-10T06:39:40;18.60;;;16.57;;
9823;SDS011;4951;50.778;7.196;2023-05-10T06:42:59;18.90;;;16.87;;
9823;SDS011;4951;50.778;7.196;2023-05-10T06:45:48;29.60;;;21.87;;
9823;SDS011;4951;50.778;7.196;2023-05-10T06:48:32;22.33;;;17.53;;
9823;SDS011;4951;50.778;7.196;2023-05-10T06:55:21;18.90;;;16.60;;
9823;SDS011;4951;50.778;7.196;2023-05-10T06:58:18;18.73;;;14.17;;
9823;SDS011;4951;50.778;7.196;2023-05-10T07:01:13;15.40;;;13.10;;
9823;SDS011;4951;50.778;7.196;2023-05-10T07:07:52;11.60;;;9.37;;
9823;SDS011;4951;50.778;7.196;2023-05-10T07:11:29;8.93;;;6.33;;
9823;SDS011;4951;50.778;7.196;2023-05-10T07:14:28;6.93;;;6.27;;
9823;SDS011;4951;50.778;7.196;2023-05-10T07:17:43;10.73;;;6.60;;
9823;SDS011;4951;50.778;7.196;2023-05-10T07:21:25;8.60;;;6.63;;
9823;SDS011;4951;50.778;7.196;2023-05-10T07:24:50;6.83;;;6.13;;
9823;SDS011;4951;50.778;7.196;2023-05-10T07:27:50;6.43;;;5.53;;
9823;SDS011;4951;50.778;7.196;2023-05-10T07:32:31;7.67;;;5.00;;
9823;SDS011;4951;50.778;7.196;2023-05-10T07:34:54;6.47;;;5.40;;
9823;SDS011;4951;50.778;7.196;2023-05-10T07:38:01;8.23;;;5.50;;
9823;SDS011;4951;50.778;7.196;2023-05-10T07:44:19;6.87;;;5.37;;
9823;SDS011;4951;50.778;7.196;2023-05-10T07:47:03;6.87;;;5.00;;
9823;SDS011;4951;50.778;7.196;2023-05-10T07:49:59;7.13;;;4.93;;
9823;SDS011;4951;50.778;7.196;2023-05-10T07:52:42;6.30;;;4.87;;
9823;SDS011;4951;50.778;7.196;2023-05-10T07:55:19;7.93;;;4.67;;
9823;SDS011;4951;50.778;7.196;2023-05-10T07:58:09;6.17;;;4.67;;
9823;SDS011;4951;50.778;7.196;2023-05-10T08:00:56;4.93;;;4.50;;
9823;SDS011;4951;50.778;7.196;2023-05-10T08:03:38;5.50;;;4.37;;
9823;SDS011;4951;50.778;7.196;2023-05-10T08:06:49;9.10;;;5.37;;
9823;SDS011;4951;50.778;7.196;2023-05-10T08:09:59;5.37;;;4.87;;
9823;SDS011;4951;50.778;7.196;2023-05-10T08:16:38;6.67;;;4.77;;
9823;SDS011;4951;50.778;7.196;2023-05-10T08:19:39;5.83;;;4.73;;
9823;SDS011;4951;50.778;7.196;2023-05-10T08:23:07;6.77;;;5.23;;
9823;SDS011;4951;50.778;7.196;2023-05-10T08:25:47;5.80;;;5.20;;
9823;SDS011;4951;50.778;7.196;2023-05-10T08:32:08;8.47;;;6.40;;
9823;SDS011;4951;50.778;7.196;2023-05-10T08:35:40;5.77;;;5.20;;
9823;SDS011;4951;50.778;7.196;2023-05-10T08:38:20;5.50;;;4.97;;
9823;SDS011;4951;50.778;7.196;2023-05-10T08:41:04;7.10;;;5.70;;
9823;SDS011;4951;50.778;7.196;2023-05-10T08:47:38;7.33;;;6.30;;
9823;SDS011;4951;50.778;7.196;2023-05-10T08:50:24;6.37;;;5.63;;
9823;SDS011;4951;50.778;7.196;2023-05-10T08:54:03;6.20;;;5.43;;
9823;SDS011;4951;50.778;7.196;2023-05-10T09:04:29;7.67;;;5.60;;
9823;SDS011;4951;50.778;7.196;2023-05-10T09:07:04;5.70;;;4.87;;
9823;SDS011;4951;50.778;7.196;2023-05-10T09:09:48;7.87;;;6.30;;
9823;SDS011;4951;50.778;7.196;2023-05-10T09:12:54;8.10;;;6.60;;
9823;SDS011;4951;50.778;7.196;2023-05-10T09:16:00;7.80;;;5.43;;
9823;SDS011;4951;50.778;7.196;2023-05-10T09:19:17;5.37;;;4.87;;
9823;SDS011;4951;50.778;7.196;2023-05-10T09:26:08;4.97;;;3.10;;
9823;SDS011;4951;50.778;7.196;2023-05-10T09:28:59;5.00;;;2.23;;
9823;SDS011;4951;50.778;7.196;2023-05-10T09:32:02;3.03;;;2.50;;
9823;SDS011;4951;50.778;7.196;2023-05-10T09:35:12;3.07;;;2.20;;
9823;SDS011;4951;50.778;7.196;2023-05-10T09:38:01;2.07;;;1.93;;
9823;SDS011;4951;50.778;7.196;2023-05-10T09:40:50;4.40;;;2.57;;
9823;SDS011;4951;50.778;7.196;2023-05-10T09:46:39;4.03;;;2.00;;
9823;SDS011;4951;50.778;7.196;2023-05-10T09:49:25;2.70;;;2.20;;
9823;SDS011;4951;50.778;7.196;2023-05-10T09:52:20;2.20;;;2.00;;
9823;SDS011;4951;50.778;7.196;2023-05-10T09:55:26;1.93;;;1.80;;
9823;SDS011;4951;50.778;7.196;2023-05-10T09:58:41;2.97;;;2.03;;
9823;SDS011;4951;50.778;7.196;2023-05-10T10:02:11;2.10;;;1.90;;
9823;SDS011;4951;50.778;7.196;2023-05-10T10:05:48;2.10;;;2.00;;
9823;SDS011;4951;50.778;7.196;2023-05-10T10:08:57;3.27;;;2.43;;
9823;SDS011;4951;50.778;7.196;2023-05-10T10:12:10;2.93;;;2.60;;
9823;SDS011;4951;50.778;7.196;2023-05-10T10:15:13;4.03;;;3.07;;
9823;SDS011;4951;50.778;7.196;2023-05-10T10:21:49;4.70;;;3.67;;
9823;SDS011;4951;50.778;7.196;2023-05-10T10:24:44;4.07;;;3.67;;
9823;SDS011;4951;50.778;7.196;2023-05-10T10:27:24;4.80;;;4.20;;
9823;SDS011;4951;50.778;7.196;2023-05-10T10:30:10;4.77;;;4.27;;
9823;SDS011;4951;50.778;7.196;2023-05-10T10:33:26;4.83;;;4.33;;
9823;SDS011;4951;50.778;7.196;2023-05-10T10:36:27;6.77;;;5.90;;
9823;SDS011;4951;50.778;7.196;2023-05-10T10:39:20;7.87;;;7.07;;
9823;SDS011;4951;50.778;7.196;2023-05-10T10:41:54;8.87;;;7.30;;
9823;SDS011;4951;50.778;7.196;2023-05-10T10:44:34;8.87;;;7.80;;
9823;SDS011;4951;50.778;7.196;2023-05-10T10:47:30;10.50;;;7.97;;
9823;SDS011;4951;50.778;7.196;2023-05-10T10:50:05;12.00;;;9.27;;
9823;SDS011;4951;50.778;7.196;2023-05-10T10:52:44;9.33;;;8.30;;
9823;SDS011;4951;50.778;7.196;2023-05-10T10:56:00;11.27;;;9.27;;
9823;SDS011;4951;50.778;7.196;2023-05-10T10:58:51;11.23;;;9.17;;
9823;SDS011;4951;50.778;7.196;2023-05-10T11:01:32;9.10;;;8.07;;
9823;SDS011;4951;50.778;7.196;2023-05-10T11:04:25;10.47;;;8.63;;
9823;SDS011;4951;50.778;7.196;2023-05-10T11:10:06;8.50;;;7.60;;
9823;SDS011;4951;50.778;7.196;2023-05-10T11:13:05;7.77;;;6.97;;
9823;SDS011;4951;50.778;7.196;2023-05-10T11:15:48;7.70;;;6.23;;
9823;SDS011;4951;50.778;7.196;2023-05-10T11:18:40;5.70;;;5.10;;
9823;SDS011;4951;50.778;7.196;2023-05-10T11:21:48;7.13;;;5.97;;
9823;SDS011;4951;50.778;7.196;2023-05-10T11:25:05;6.70;;;5.57;;
9823;SDS011;4951;50.778;7.196;2023-05-10T11:28:18;6.00;;;4.67;;
9823;SDS011;4951;50.778;7.196;2023-05-10T11:31:04;4.37;;;3.97;;
9823;SDS011;4951;50.778;7.196;2023-05-10T11:34:05;4.73;;;4.33;;
9823;SDS011;4951;50.778;7.196;2023-05-10T11:37:19;3.77;;;3.37;;
9823;SDS011;4951;50.778;7.196;2023-05-10T11:40:20;3.93;;;2.80;;
9823;SDS011;4951;50.778;7.196;2023-05-10T11:43:07;3.67;;;3.37;;
9823;SDS011;4951;50.778;7.196;2023-05-10T11:45:56;3.40;;;3.10;;
9823;SDS011;4951;50.778;7.196;2023-05-10T11:49:30;2.77;;;2.50;;
9823;SDS011;4951;50.778;7.196;2023-05-10T11:52:46;2.10;;;2.00;;
9823;SDS011;4951;50.778;7.196;2023-05-10T11:55:41;2.60;;;2.30;;
9823;SDS011;4951;50.778;7.196;2023-05-10T12:02:19;2.60;;;2.40;;
9823;SDS011;4951;50.778;7.196;2023-05-10T12:04:54;3.40;;;2.40;;
9823;SDS011;4951;50.778;7.196;2023-05-10T12:07:37;2.43;;;2.23;;
9823;SDS011;4951;50.778;7.196;2023-05-10T12:14:27;2.00;;;1.85;;
9823;SDS011;4951;50.778;7.196;2023-05-10T12:21:26;2.05;;;1.80;;
9823;SDS011;4951;50.778;7.196;2023-05-10T12:24:19;2.20;;;2.00;;
9823;SDS011;4951;50.778;7.196;2023-05-10T12:27:37;4.20;;;2.05;;
9823;SDS011;4951;50.778;7.196;2023-05-10T12:30:46;2.30;;;2.10;;
9823;SDS011;4951;50.778;7.196;2023-05-10T12:33:53;2.35;;;2.15;;
9823;SDS011;4951;50.778;7.196;2023-05-10T12:44:05;2.90;;;1.60;;
9823;SDS011;4951;50.778;7.196;2023-05-10T12:58:05;1.60;;;1.50;;
9823;SDS011;4951;50.778;7.196;2023-05-10T13:01:17;2.35;;;2.15;;
9823;SDS011;4951;50.778;7.196;2023-05-10T13:09:03;1.90;;;1.77;;
9823;SDS011;4951;50.778;7.196;2023-05-10T13:12:29;2.90;;;1.92;;
9823;SDS011;4951;50.778;7.196;2023-05-10T14:08:50;2.17;;;1.90;;
9823;SDS011;4951;50.778;7.196;2023-05-10T14:14:57;2.63;;;2.43;;
9823;SDS011;4951;50.778;7.196;2023-05-10T14:20:59;2.70;;;2.23;;
9823;SDS011;4951;50.778;7.196;2023-05-10T14:24:09;2.30;;;1.90;;
9823;SDS011;4951;50.778;7.196;2023-05-10T14:30:50;4.93;;;3.07;;
9823;SDS011;4951;50.778;7.196;2023-05-10T14:37:16;4.17;;;3.60;;
9823;SDS011;4951;50.778;7.196;2023-05-10T14:40:18;4.37;;;4.00;;
9823;SDS011;4951;50.778;7.196;2023-05-10T14:43:13;5.70;;;3.70;;
9823;SDS011;4951;50.778;7.196;2023-05-10T14:45:56;4.87;;;3.60;;
9823;SDS011;4951;50.778;7.196;2023-05-10T14:49:07;3.53;;;3.10;;
9823;SDS011;4951;50.778;7.196;2023-05-10T14:53:05;3.20;;;2.90;;
9823;SDS011;4951;50.778;7.196;2023-05-10T14:56:04;2.90;;;2.40;;
9823;SDS011;4951;50.778;7.196;2023-05-10T14:59:14;2.67;;;2.47;;
9823;SDS011;4951;50.778;7.196;2023-05-10T15:02:37;2.90;;;2.70;;
9823;SDS011;4951;50.778;7.196;2023-05-10T15:05:18;3.17;;;2.70;;
9823;SDS011;4951;50.778;7.196;2023-05-10T15:07:52;3.10;;;2.70;;
9823;SDS011;4951;50.778;7.196;2023-05-10T15:11:20;2.83;;;2.50;;
9823;SDS011;4951;50.778;7.196;2023-05-10T15:13:52;3.10;;;2.90;;
9823;SDS011;4951;50.778;7.196;2023-05-10T15:20:31;2.33;;;2.13;;
9823;SDS011;4951;50.778;7.196;2023-05-10T15:23:07;2.83;;;2.10;;
9823;SDS011;4951;50.778;7.196;2023-05-10T15:36:45;3.88;;;1.70;;
9823;SDS011;4951;50.778;7.196;2023-05-10T15:40:20;2.13;;;1.70;;
9823;SDS011;4951;50.778;7.196;2023-05-10T15:43:25;2.97;;;2.00;;
9823;SDS011;4951;50.778;7.196;2023-05-10T15:45:57;2.05;;;1.55;;
9823;SDS011;4951;50.778;7.196;2023-05-10T15:48:57;1.67;;;1.58;;
9823;SDS011;4951;50.778;7.196;2023-05-10T15:52:07;2.70;;;1.95;;
9823;SDS011;4951;50.778;7.196;2023-05-10T15:55:55;2.00;;;1.90;;
9823;SDS011;4951;50.778;7.196;2023-05-10T15:59:00;2.40;;;1.83;;
9823;SDS011;4951;50.778;7.196;2023-05-10T16:01:41;1.83;;;1.73;;
9823;SDS011;4951;50.778;7.196;2023-05-10T16:04:49;1.97;;;1.70;;
9823;SDS011;4951;50.778;7.196;2023-05-10T16:07:31;1.97;;;1.50;;
9823;SDS011;4951;50.778;7.196;2023-05-10T16:10:21;1.50;;;1.40;;
9823;SDS011;4951;50.778;7.196;2023-05-10T16:12:51;1.47;;;1.37;;
9823;SDS011;4951;50.778;7.196;2023-05-10T16:15:23;1.60;;;1.50;;
9823;SDS011;4951;50.778;7.196;2023-05-10T16:17:57;2.07;;;1.57;;
9823;SDS011;4951;50.778;7.196;2023-05-10T16:20:54;1.90;;;1.80;;
9823;SDS011;4951;50.778;7.196;2023-05-10T16:23:35;4.93;;;1.90;;
9823;SDS011;4951;50.778;7.196;2023-05-10T16:26:11;2.43;;;2.23;;
9823;SDS011;4951;50.778;7.196;2023-05-10T16:28:45;3.67;;;2.00;;
9823;SDS011;4951;50.778;7.196;2023-05-10T16:31:55;2.03;;;1.93;;
9823;SDS011;4951;50.778;7.196;2023-05-10T16:34:48;2.03;;;1.93;;
9823;SDS011;4951;50.778;7.196;2023-05-10T16:37:55;2.57;;;2.33;;
9823;SDS011;4951;50.778;7.196;2023-05-10T16:43:44;2.27;;;2.10;;
9823;SDS011;4951;50.778;7.196;2023-05-10T16:47:03;2.80;;;2.17;;
9823;SDS011;4951;50.778;7.196;2023-05-10T16:50:32;2.40;;;2.20;;
9823;SDS011;4951;50.778;7.196;2023-05-10T17:01:52;1.83;;;1.73;;
9823;SDS011;4951;50.778;7.196;2023-05-10T17:09:17;3.07;;;1.80;;
9823;SDS011;4951;50.778;7.196;2023-05-10T17:12:19;2.10;;;1.90;;
9823;SDS011;4951;50.778;7.196;2023-05-10T17:14:58;2.20;;;2.00;;
9823;SDS011;4951;50.778;7.196;2023-05-10T17:18:49;3.00;;;2.20;;
9823;SDS011;4951;50.778;7.196;2023-05-10T17:22:09;2.17;;;1.90;;
9823;SDS011;4951;50.778;7.196;2023-05-10T17:25:28;1.87;;;1.77;;
9823;SDS011;4951;50.778;7.196;2023-05-10T17:28:57;4.53;;;1.80;;
9823;SDS011;4951;50.778;7.196;2023-05-10T17:35:37;2.33;;;1.90;;
9823;SDS011;4951;50.778;7.196;2023-05-10T17:38:38;3.47;;;2.00;;
9823;SDS011;4951;50.778;7.196;2023-05-10T17:41:38;2.80;;;1.97;;
9823;SDS011;4951;50.778;7.196;2023-05-10T17:44:08;3.70;;;2.00;;
9823;SDS011;4951;50.778;7.196;2023-05-10T17:46:38;1.83;;;1.73;;
9823;SDS011;4951;50.778;7.196;2023-05-10T17:49:13;2.10;;;2.00;;
9823;SDS011;4951;50.778;7.196;2023-05-10T17:51:59;3.43;;;1.90;;
9823;SDS011;4951;50.778;7.196;2023-05-10T17:55:09;2.13;;;1.90;;
9823;SDS011;4951;50.778;7.196;2023-05-10T17:58:56;2.97;;;2.03;;
9823;SDS011;4951;50.778;7.196;2023-05-10T18:02:36;2.93;;;1.77;;
9823;SDS011;4951;50.778;7.196;2023-05-10T18:12:09;2.10;;;1.73;;
9823;SDS011;4951;50.778;7.196;2023-05-10T18:14:59;2.47;;;1.90;;
9823;SDS011;4951;50.778;7.196;2023-05-10T18:17:34;1.93;;;1.80;;
9823;SDS011;4951;50.778;7.196;2023-05-10T18:20:18;2.03;;;1.40;;
9823;SDS011;4951;50.778;7.196;2023-05-10T18:23:59;2.00;;;1.80;;
9823;SDS011;4951;50.778;7.196;2023-05-10T18:37:07;2.57;;;1.53;;
9823;SDS011;4951;50.778;7.196;2023-05-10T18:43:34;1.63;;;1.50;;
9823;SDS011;4951;50.778;7.196;2023-05-10T19:00:05;1.50;;;1.40;;
9823;SDS011;4951;50.778;7.196;2023-05-10T19:07:32;2.33;;;1.97;;
9823;SDS011;4951;50.778;7.196;2023-05-10T19:17:13;2.20;;;1.80;;
9823;SDS011;4951;50.778;7.196;2023-05-10T19:20:37;2.23;;;1.67;;
9823;SDS011;4951;50.778;7.196;2023-05-10T19:23:43;2.13;;;1.97;;
9823;SDS011;4951;50.778;7.196;2023-05-10T19:26:36;2.30;;;2.10;;
9823;SDS011;4951;50.778;7.196;2023-05-10T19:29:25;1.90;;;1.80;;
9823;SDS011;4951;50.778;7.196;2023-05-10T19:35:41;2.27;;;1.87;;
9823;SDS011;4951;50.778;7.196;2023-05-10T19:38:43;3.13;;;1.87;;
9823;SDS011;4951;50.778;7.196;2023-05-10T19:41:55;2.20;;;2.00;;
9823;SDS011;4951;50.778;7.196;2023-05-10T19:45:10;2.70;;;2.13;;
9823;SDS011;4951;50.778;7.196;2023-05-10T19:48:24;2.60;;;2.00;;
9823;SDS011;4951;50.778;7.196;2023-05-10T19:51:29;1.93;;;1.83;;
9823;SDS011;4951;50.778;7.196;2023-05-10T19:57:35;4.60;;;3.43;;
9823;SDS011;4951;50.778;7.196;2023-05-10T20:08:09;4.23;;;3.93;;
9823;SDS011;4951;50.778;7.196;2023-05-10T20:11:28;3.60;;;3.30;;
9823;SDS011;4951;50.778;7.196;2023-05-10T20:14:25;3.00;;;2.80;;
9823;SDS011;4951;50.778;7.196;2023-05-10T20:17:12;3.30;;;3.00;;
9823;SDS011;4951;50.778;7.196;2023-05-10T20:23:32;3.20;;;2.70;;
9823;SDS011;4951;50.778;7.196;2023-05-10T20:26:53;3.40;;;3.10;;
9823;SDS011;4951;50.778;7.196;2023-05-10T20:30:46;3.53;;;3.23;;
9823;SDS011;4951;50.778;7.196;2023-05-10T20:33:50;7.30;;;3.70;;
9823;SDS011;4951;50.778;7.196;2023-05-10T20:37:18;4.40;;;4.00;;
9823;SDS011;4951;50.778;7.196;2023-05-10T20:45:07;5.00;;;4.50;;
9823;SDS011;4951;50.778;7.196;2023-05-10T20:48:33;6.67;;;5.00;;
9823;SDS011;4951;50.778;7.196;2023-05-10T20:51:36;4.80;;;4.27;;
9823;SDS011;4951;50.778;7.196;2023-05-10T20:54:40;4.43;;;3.20;;
9823;SDS011;4951;50.778;7.196;2023-05-10T21:01:32;4.50;;;4.10;;
9823;SDS011;4951;50.778;7.196;2023-05-10T21:04:14;4.30;;;3.50;;
9823;SDS011;4951;50.778;7.196;2023-05-10T21:07:20;2.97;;;2.77;;
9823;SDS011;4951;50.778;7.196;2023-05-10T21:09:59;3.30;;;3.10;;
9823;SDS011;4951;50.778;7.196;2023-05-10T21:12:44;4.20;;;3.90;;
9823;SDS011;4951;50.778;7.196;2023-05-10T21:17:41;4.43;;;3.93;;
9823;SDS011;4951;50.778;7.196;2023-05-10T21:20:02;4.50;;;4.10;;
9823;SDS011;4951;50.778;7.196;2023-05-10T21:35:52;4.93;;;4.43;;
9823;SDS011;4951;50.778;7.196;2023-05-10T21:38:03;5.90;;;5.40;;
9823;SDS011;4951;50.778;7.196;2023-05-10T21:44:17;4.30;;;3.93;;
9823;SDS011;4951;50.778;7.196;2023-05-10T21:55:57;5.10;;;4.60;;
9823;SDS011;4951;50.778;7.196;2023-05-10T21:58:48;4.50;;;4.20;;
9823;SDS011;4951;50.778;7.196;2023-05-10T22:02:09;5.27;;;4.70;;
9823;SDS011;4951;50.778;7.196;2023-05-10T22:08:03;5.57;;;5.07;;
9823;SDS011;4951;50.778;7.196;2023-05-10T22:11:07;6.07;;;5.30;;
9823;SDS011;4951;50.778;7.196;2023-05-10T22:17:05;9.30;;;5.77;;
9823;SDS011;4951;50.778;7.196;2023-05-10T22:20:06;6.00;;;5.40;;
9823;SDS011;4951;50.778;7.196;2023-05-10T22:26:52;5.40;;;4.90;;
9823;SDS011;4951;50.778;7.196;2023-05-10T22:33:02;5.50;;;5.00;;
9823;SDS011;4951;50.778;7.196;2023-05-10T22:36:10;7.37;;;5.20;;
9823;SDS011;4951;50.778;7.196;2023-05-10T22:42:19;7.23;;;4.60;;
9823;SDS011;4951;50.778;7.196;2023-05-10T22:52:38;5.03;;;3.70;;
9823;SDS011;4951;50.778;7.196;2023-05-10T22:56:22;6.40;;;3.40;;
9823;SDS011;4951;50.778;7.196;2023-05-10T22:59:47;6.67;;;3.50;;
9823;SDS011;4951;50.778;7.196;2023-05-10T23:03:00;3.83;;;2.90;;
9823;SDS011;4951;50.778;7.196;2023-05-10T23:07:29;1.70;;;1.60;;
9823;SDS011;4951;50.778;7.196;2023-05-10T23:18:26;1.47;;;1.20;;
9823;SDS011;4951;50.778;7.196;2023-05-10T23:21:55;1.40;;;1.30;;
9823;SDS011;4951;50.778;7.196;2023-05-10T23:25:51;1.40;;;1.20;;
9823;SDS011;4951;50.778;7.196;2023-05-10T23:28:23;1.10;;;0.97;;
9823;SDS011;4951;50.778;7.196;2023-05-10T23:38:26;1.30;;;1.20;;
9823;SDS011;4951;50.778;7.196;2023-05-10T23:41:34;2.17;;;1.10;;
9823;SDS011;4951;50.778;7.196;2023-05-10T23:44:47;1.37;;;0.80;;
9823;SDS011;4951;50.778;7.196;2023-05-10T23:48:16;0.70;;;0.70;;
9823;SDS011;4951;50.778;7.196;2023-05-10T23:50:59;0.80;;;0.80;;
9823;SDS011;4951;50.778;7.196;2023-05-10T23:54:01;1.00;;;0.87;;
